createdAt,value
2022-09-01T11:48:51.995Z,25.18
2022-09-01T11:49:45.643Z,25.29
2022-09-01T11:50:46.053Z,25.32
2022-09-01T11:51:48.009Z,25.44
2022-09-01T11:52:45.577Z,25.26
2022-09-01T11:53:45.510Z,25.20
2022-09-01T11:54:45.586Z,25.19
2022-09-01T11:55:45.416Z,25.29
2022-09-01T11:56:45.377Z,25.51
2022-09-01T11:57:45.579Z,25.75
2022-09-01T11:58:45.340Z,25.97
2022-09-01T11:59:45.577Z,26.11
2022-09-01T12:00:45.556Z,26.06
2022-09-01T12:01:45.426Z,25.96
2022-09-01T12:02:50.443Z,25.82
2022-09-01T12:03:45.452Z,25.77
2022-09-01T12:04:45.402Z,25.62
2022-09-01T12:05:45.436Z,25.50
2022-09-01T12:06:45.297Z,25.65
2022-09-01T12:07:45.322Z,25.74
2022-09-01T12:08:45.346Z,25.74
2022-09-01T12:09:45.541Z,25.73
2022-09-01T12:10:45.413Z,25.58
2022-09-01T12:11:45.391Z,25.18
2022-09-01T12:12:45.294Z,25.19
2022-09-01T12:13:45.436Z,25.22
2022-09-01T12:15:04.829Z,25.37
2022-09-01T12:16:14.155Z,25.53
2022-09-01T12:16:45.277Z,25.63
2022-09-01T12:17:45.344Z,25.60
2022-09-01T12:18:45.305Z,25.53
2022-09-01T12:19:45.250Z,25.32
2022-09-01T12:20:45.459Z,25.14
2022-09-01T12:21:45.324Z,24.81
2022-09-01T12:22:45.116Z,24.45
2022-09-01T12:23:45.138Z,24.18
2022-09-01T12:24:45.117Z,23.99
2022-09-01T12:25:45.092Z,23.77
2022-09-01T12:26:45.050Z,23.68
2022-09-01T12:27:45.078Z,23.61
2022-09-01T12:28:45.042Z,23.78
2022-09-01T12:29:45.025Z,23.68
2022-09-01T12:30:45.021Z,23.76
2022-09-01T12:31:45.081Z,23.58
2022-09-01T12:32:45.008Z,23.38
2022-09-01T12:33:44.990Z,23.28
2022-09-01T12:34:45.000Z,23.22
2022-09-01T12:35:45.012Z,23.18
2022-09-01T12:37:44.948Z,23.09
2022-09-01T12:38:44.938Z,23.10
2022-09-01T12:39:44.934Z,23.10
2022-09-01T12:40:44.992Z,23.06
2022-09-01T12:41:44.942Z,23.02
2022-09-01T12:42:44.972Z,22.98
2022-09-01T12:43:45.604Z,22.90
2022-09-01T12:44:44.869Z,22.87
2022-09-01T12:45:45.012Z,22.83
2022-09-01T12:46:46.447Z,22.99
2022-09-01T12:47:44.861Z,23.24
2022-09-01T12:48:44.838Z,23.34
2022-09-01T12:49:47.862Z,23.36
2022-09-01T12:50:44.805Z,23.40
2022-09-01T12:51:44.827Z,23.37
2022-09-01T12:52:44.835Z,23.31
2022-09-01T12:53:44.846Z,23.41
2022-09-01T12:54:44.782Z,23.66
2022-09-01T12:55:48.044Z,23.96
2022-09-01T12:56:44.902Z,23.83
2022-09-01T12:57:44.781Z,23.65
2022-09-01T12:58:44.730Z,23.53
2022-09-01T12:59:44.747Z,23.55
2022-09-01T13:00:44.751Z,23.68
2022-09-01T13:01:44.856Z,23.81
2022-09-01T13:02:44.847Z,23.96
2022-09-01T13:03:44.697Z,24.05
2022-09-01T13:04:44.675Z,24.14
2022-09-01T13:05:44.666Z,24.25
2022-09-01T13:06:44.658Z,24.30
2022-09-01T13:07:44.815Z,24.35
2022-09-01T13:08:44.970Z,24.33
2022-09-01T13:09:45.920Z,24.45
2022-09-01T13:10:44.623Z,24.26
2022-09-01T13:12:44.608Z,24.10
2022-09-01T13:13:44.589Z,23.98
2022-09-01T13:14:44.558Z,23.92
2022-09-01T13:15:46.547Z,24.13
2022-09-01T13:16:45.041Z,24.08
2022-09-01T13:17:45.106Z,23.89
2022-09-01T13:19:44.543Z,23.58
2022-09-01T13:20:44.529Z,23.77
2022-09-01T13:21:44.565Z,23.99
2022-09-01T13:22:45.816Z,24.28
2022-09-01T13:32:19.049Z,24.62
2022-09-01T14:53:51.010Z,24.91
2022-09-01T14:54:51.917Z,24.98
2022-09-01T14:55:55.645Z,25.00
2022-09-01T15:05:37.664Z,25.66
2022-09-01T15:17:26.465Z,25.84
2022-09-01T15:18:27.474Z,25.87
2022-09-01T15:19:27.468Z,25.80
2022-09-01T15:20:27.210Z,25.88
2022-09-01T15:21:27.227Z,25.78
2022-09-01T15:22:27.221Z,25.55
2022-09-01T15:23:27.235Z,25.67
2022-09-01T15:24:27.152Z,25.66
2022-09-01T15:25:27.196Z,25.93
2022-09-01T15:26:27.094Z,25.84
2022-09-01T15:27:27.109Z,25.78
2022-09-01T15:28:27.139Z,25.80
2022-09-01T15:29:27.252Z,25.88
2022-09-01T15:30:27.184Z,25.81
2022-09-01T15:31:32.311Z,25.74
2022-09-01T15:32:28.017Z,25.80
2022-09-01T15:33:27.228Z,25.75
2022-09-01T15:34:27.059Z,25.58
2022-09-01T15:35:27.083Z,25.55
2022-09-01T15:36:27.086Z,25.60
2022-09-01T15:37:27.082Z,25.48
2022-09-01T15:38:30.458Z,25.44
2022-09-01T17:47:22.748Z,21.15
2022-09-01T17:48:23.815Z,21.11
2022-09-01T18:29:48.441Z,19.62
2022-09-01T18:45:19.779Z,19.00
2022-09-01T18:46:20.836Z,18.93
2022-09-01T18:47:20.641Z,18.93
2022-09-01T18:48:20.552Z,18.93
2022-09-01T18:49:20.525Z,18.86
2022-09-01T18:50:20.459Z,18.80
2022-09-01T18:51:20.476Z,18.75
2022-09-01T18:52:20.574Z,18.74
2022-09-01T18:53:20.682Z,18.74
2022-09-01T18:54:20.498Z,18.68
2022-09-01T19:57:38.554Z,17.64
